Ashfield, Massachusetts
Current Conditions -  °F | °C
As of 2:52 PM on Sunday 25 Jan 2015 (Local Time) from KAQW Reporting Station
Clear Clear  
Wind Chill: -10°   Ceiling: Unl
Heat Index: -3°   Visibility: 10mi
Dew Point: -15°   Wind: 17mph
Humidity: 41%   Direction: 270°W
Pressure: 29.76"   Gusts: 23mph
Location:  42.53°N, 72.79°W
Report Text: KAQW 251952Z AUTO 27015G20KT 10SM CLR M03/M15 A2976 RMK AO2 SLP087 T10331150
Loading
Personal Weather Stations






























Interactive Weather Map New forecast layout! Learn more

10-Day Weather Forecast

Advertisements
Track Severe Weather on mobile